Tiempo atmosférico en la estación meteorológica de Castejon De Valdejasa, Zaragoza (442 m.)



Fecha
DESCASC
Temp. máxima en grados centígrados (hora)
DESCASC
Temp. mínima en grados centígrados (hora)
DESCASC
Temp. media en grados centígrados
DESCASC
Racha de viento máxima en m/sg (hora)
DESCASC
Velocidad máxima media en intervalos de 10 minutos(hora)
DESCASC
Precipitaciones diarias en mm
DESCASC
Precipitaciones de 00:00 a 06:00 en mm
DESCASC
Precipitaciones de 06:00 a 12:00 en mm
DESCASC
Precipitaciones de 12:00 a 18:00 en mm
DESCASC
Precipitaciones de 18:00 a 24:00 en mm
DESCASC
18-10-2018 20.2 (15:30) 11 (05:40) 15.6 6.67 (15:10) 4.72 (13:00) 0.6 0 0 0 0.6
17-10-2018 21.3 (17:50) 9.1 (09:00) 15.2 5.83 (15:00) 4.44 (15:00) 0 0 0 0 0
16-10-2018 20.1 (15:50) 8.7 (08:10) 14.4 7.78 (17:00) 4.72 (16:30) 0 0 0 0 0
15-10-2018 18.3 (16:10) 9.3 (07:20) 13.8 13.89 (03:40) 7.5 (05:00) 0.2 0.2 0 0 0
14-10-2018 19.6 (14:50) 11.3 (00:00) 15.5 19.17 (04:10) 13.06 (09:30) 18 0 0 12.4 5.6
13-10-2018 25.5 (14:50) 16.3 (00:00) 20.9 15.28 (23:40) 11.39 (23:59) 0 0 0 0 0
12-10-2018 25.9 (15:40) 15.7 (08:20) 20.8 8.61 (15:50) 5.28 (01:30) 0 0 0 0 0
11-10-2018 23.2 (17:00) 13.8 (07:50) 18.5 10.83 (11:40) 8.06 (09:10) 0 0 0 0 0
10-10-2018 21.2 (18:10) 12.7 (00:00) 17 11.39 (12:50) 7.5 (09:40) 2 2 0 0 0
09-10-2018 18.6 (16:40) 6.6 (06:40) 12.6 11.11 (18:00) 8.33 (17:10) 0.4 0 0.2 0.2 0
08-10-2018 19.8 (16:40) 9 (07:40) 14.4 10.56 (01:20) 6.39 (00:40) 0 0 0 0 0
07-10-2018 15.1 (14:10) 8.7 (08:10) 11.9 15.28 (14:10) 9.17 (13:30) 0 0 0 0 0
05-10-2018 25.4 (16:00) 13.4 (08:20) 19.4 10.56 (02:50) 7.78 (02:50) 0 0 0 0 0
04-10-2018 26.1 (16:50) 9.3 (00:00) 17.7 8.61 (23:59) 6.11 (23:59) 0 0 0 0 0
03-10-2018 25.5 (17:40) 9.3 (07:30) 17.4 8.33 (00:20) 5.83 (14:20) 0 0 0 0 0
02-10-2018 21.9 (17:00) 8 (00:00) 14.9 13.89 (01:40) 9.44 (17:50) 0 0 0 0 0
01-10-2018 17.8 (13:20) 10.2 (00:00) 14 21.11 (17:40) 11.39 (17:50) 0 0 0 0 0
30-09-2018 24.9 (16:10) 10.6 (00:00) 17.8 14.72 (23:30) 8.61 (23:10) 0 0 0 0 0
29-09-2018 27.2 (16:30) 12.6 (00:00) 19.9 12.22 (17:50) 7.78 (17:40) 0 0 0 0 0
28-09-2018 27.9 (17:30) 14.1 (00:00) 21 6.67 (15:00) 4.44 (18:20) 0 0 0 0 0
27-09-2018 26.9 (16:00) 14.2 (00:00) 20.5 10.56 (00:20) 7.22 (00:20) 0 0 0 0 0
26-09-2018 25.4 (16:00) 15 (00:00) 20.2 15.56 (12:50) 10.28 (06:00) 0 0 0 0 0
25-09-2018 22.8 (16:40) 7.7 (00:00) 15.2 14.17 (01:10) 8.61 (00:40) 0 0 0 0 0
24-09-2018 21.6 (17:00) 11 (00:00) 16.3 18.89 (15:10) 11.94 (16:00) 0 0 0 0 0
23-09-2018 31.8 (17:30) 17.5 (06:30) 24.6 12.5 (23:20) 8.61 (23:20) 0 0 0 0 0
22-09-2018 29.8 (17:40) 14.8 (07:50) 22.3 9.72 (17:00) 6.39 (17:00) 0 0 0 0 0
21-09-2018 29 (16:20) 18 (07:30) 23.5 9.72 (15:10) 6.39 (17:10) 0 0 0 0 0

Gráficas

Temp. máximas Temp. mínimas Temp. medias Precipitaciones Rachas de viento máximas Velocidades máximas media en intervalos de 10 minutos

Datos horarios

Fecha y hora oficial Temperatura (ºC) Velocidad del viento (km/h) Dirección del viento Racha (km/h) Dirección de racha Precipitación (mm) Presión (hPa) Tendencia (hPa) Humedad (%)
2018-10-19 23:00:00 15.5 12 Este 17 Este 0.2 -- -- 91
2018-10-19 22:00:00 15.5 6 Nordeste 14 Nordeste 0 -- -- 89
2018-10-19 21:00:00 15.4 8 Nordeste 16 Este 1.4 -- -- 90
2018-10-19 20:00:00 17.5 9 Este 17 Sudeste 0.8 -- -- 78
2018-10-19 19:00:00 18.1 2 Nordeste 6 Sudoeste 0 -- -- 72
2018-10-19 18:00:00 18.7 2 Oeste 8 Sudoeste 0 -- -- 75
2018-10-19 17:00:00 18.3 5 Sudoeste 10 Oeste 0 -- -- 77
2018-10-19 16:00:00 17.7 6 Oeste 16 Este 0 -- -- 78
2018-10-19 15:00:00 18.4 8 Nordeste 15 Este 0 -- -- 74
2018-10-19 14:00:00 17.5 4 Oeste 14 Este 0 -- -- 79
2018-10-19 13:00:00 16.8 4 Este 9 Nordeste 0 -- -- 82
2018-10-19 12:00:00 14.6 0 Calma 13 Oeste 0 -- -- 85
2018-10-19 11:00:00 14.4 4 Oeste 7 Oeste 0.2 -- -- 91
2018-10-19 10:00:00 13.9 4 Este 7 Nordeste 0 -- -- 92
2018-10-19 09:00:00 13.3 6 Nordeste 9 Este 0 -- -- 92
2018-10-19 08:00:00 13.3 5 Nordeste 8 Este 0 -- -- 92
2018-10-19 07:00:00 13.2 4 Este 13 Sudeste 0 -- -- 92
2018-10-19 06:00:00 13.4 4 Nordeste 8 Este 0 -- -- 91
2018-10-19 05:00:00 13.7 3 Este 6 Este 0 -- -- 92
2018-10-19 04:00:00 13.8 0 Calma 6 Este 0 -- -- 91
2018-10-19 03:00:00 14.1 0 Calma 7 Sudeste 0 -- -- 92
2018-10-19 02:00:00 14.4 0 Calma 6 Este 0 -- -- 93
2018-10-19 01:00:00 14.4 0 Calma 4 Noroeste 0 -- -- 93
2018-10-19 00:00:00 14.5 4 Noroeste 13 Oeste 0 -- -- 94
2018-10-18 23:00:00 14.5 10 Oeste 16 Oeste 0 -- -- 92
2018-10-18 22:00:00 14.8 2 Sudoeste 6 Oeste 0 -- -- 91
2018-10-18 21:00:00 15.5 0 Calma 9 Este 0.4 -- -- 86
2018-10-18 20:00:00 16.6 4 Este 11 Sudeste 0.2 -- -- 80
2018-10-18 19:00:00 18.5 0 Calma 10 Noroeste 0 -- -- 65
2018-10-18 18:00:00 19.3 5 Noroeste 12 Noroeste 0 -- -- 58
2018-10-18 17:00:00 19.3 11 Oeste 19 Oeste 0 -- -- 57
2018-10-18 16:00:00 19.7 14 Oeste 24 Oeste 0 -- -- 55
2018-10-18 15:00:00 19.2 13 Oeste 21 Oeste 0 -- -- 60
2018-10-18 14:00:00 17.6 16 Oeste 22 Oeste 0 -- -- 65
2018-10-18 13:00:00 16 17 Oeste 23 Oeste 0 -- -- 72
2018-10-18 12:00:00 15.3 15 Sudoeste 19 Oeste 0 -- -- 73
2018-10-18 11:00:00 13 6 Oeste 10 Oeste 0 -- -- 84
2018-10-18 10:00:00 11.5 5 Oeste 8 Oeste 0 -- -- 90
2018-10-18 09:00:00 11.5 5 Nordeste 12 Nordeste 0 -- -- 90
2018-10-18 08:00:00 11.2 12 Nordeste 14 Nordeste 0 -- -- 91
2018-10-18 07:00:00 11.6 9 Nordeste 12 Nordeste 0 -- -- 89
2018-10-18 06:00:00 11.2 10 Nordeste 13 Nordeste 0 -- -- 89
2018-10-18 05:00:00 11.9 9 Nordeste 17 Nordeste 0 -- -- 84
2018-10-18 04:00:00 12.3 10 Este 15 Nordeste 0 -- -- 83
2018-10-18 03:00:00 12.7 10 Nordeste 14 Este 0 -- -- 80
2018-10-18 02:00:00 13.7 12 Este 15 Este 0 -- -- 76
2018-10-18 01:00:00 13.6 10 Este 13 Este 0 -- -- 78
2018-10-18 00:00:00 13.4 10 Nordeste 14 Nordeste 0 -- -- 80
2018-10-17 23:00:00 13.5 8 Nordeste 12 Nordeste 0 -- -- 79
2018-10-17 22:00:00 13.6 10 Nordeste 15 Nordeste 0 -- -- 78
2018-10-17 21:00:00 15.5 9 Nordeste 12 Nordeste 0 -- -- 69
2018-10-17 20:00:00 16.8 8 Nordeste 10 Nordeste 0 -- -- 64
2018-10-17 19:00:00 20.3 3 Noroeste 10 Sudoeste 0 -- -- 49
2018-10-17 18:00:00 21.3 6 Sudoeste 15 Sudoeste 0 -- -- 48
2018-10-17 17:00:00 20.9 8 Oeste 19 Sudoeste 0 -- -- 49
2018-10-17 16:00:00 20.4 10 Sudoeste 21 Oeste 0 -- -- 52
2018-10-17 15:00:00 19.3 16 Oeste 21 Oeste 0 -- -- 59
2018-10-17 14:00:00 18.4 5 Oeste 15 Oeste 0 -- -- 62
2018-10-17 13:00:00 16.8 9 Sudoeste 17 Sudoeste 0 -- -- 68
2018-10-17 12:00:00 15 12 Oeste 16 Oeste 0 -- -- 77
2018-10-17 11:00:00 13.1 9 Oeste 12 Oeste 0 -- -- 84
2018-10-17 10:00:00 11.6 4 Oeste 11 Nordeste 0 -- -- 90
2018-10-17 09:00:00 9.1 8 Nordeste 10 Nordeste 0 -- -- 92
2018-10-17 08:00:00 9.5 4 Nordeste 8 Nordeste 0 -- -- 93
2018-10-17 07:00:00 9.9 2 Nordeste 8 Este 0 -- -- 93
2018-10-17 06:00:00 9.4 0 Calma 7 Nordeste 0 -- -- 90
2018-10-17 05:00:00 10.6 3 Nordeste 10 Este 0 -- -- 87
2018-10-17 04:00:00 10.3 6 Este 11 Nordeste 0 -- -- 89
2018-10-17 03:00:00 10.7 8 Este 10 Este 0 -- -- 86
2018-10-17 02:00:00 11.8 6 Nordeste 9 Nordeste 0 -- -- 82
2018-10-17 01:00:00 11.7 4 Nordeste 11 Nordeste 0 -- -- 81
2018-10-17 00:00:00 12.5 11 Nordeste 13 Nordeste 0 -- -- 79
2018-10-16 23:00:00 12.9 9 Nordeste 12 Este 0 -- -- 78
2018-10-16 22:00:00 13.9 7 Nordeste 13 Nordeste 0 -- -- 75
2018-10-16 21:00:00 14.8 8 Este 11 Nordeste 0 -- -- 68
2018-10-16 20:00:00 17 2 Sudeste 10 Oeste 0 -- -- 63
2018-10-16 19:00:00 19 9 Oeste 17 Oeste 0 -- -- 56
2018-10-16 18:00:00 20 10 Oeste 20 Oeste 0 -- -- 54
2018-10-16 17:00:00 20.1 15 Oeste 28 Oeste 0 -- -- 55
2018-10-16 16:00:00 20.1 15 Oeste 23 Oeste 0 -- -- 57
2018-10-16 15:00:00 19.5 12 Oeste 21 Oeste 0 -- -- 61
2018-10-16 14:00:00 18.9 9 Oeste 16 Oeste 0 -- -- 63
2018-10-16 13:00:00 17 10 Sudoeste 22 Oeste 0 -- -- 71
2018-10-16 12:00:00 15.6 10 Oeste 17 Oeste 0 -- -- 77
2018-10-16 11:00:00 14.1 7 Oeste 12 Oeste 0 -- -- 80
2018-10-16 10:00:00 11.2 7 Este 11 Nordeste 0 -- -- 90
2018-10-16 09:00:00 9.4 8 Nordeste 11 Nordeste 0 -- -- 91
2018-10-16 08:00:00 8.8 11 Nordeste 13 Nordeste 0 -- -- 91
2018-10-16 07:00:00 9.4 5 Este 12 Nordeste 0 -- -- 89
2018-10-16 06:00:00 10.1 10 Nordeste 15 Nordeste 0 -- -- 92
2018-10-16 05:00:00 11.1 9 Nordeste 15 Nordeste 0 -- -- 88
2018-10-16 04:00:00 11.4 10 Nordeste 15 Este 0 -- -- 86
2018-10-16 03:00:00 11.1 9 Nordeste 12 Nordeste 0 -- -- 86
2018-10-16 02:00:00 13.4 10 Este 13 Este 0 -- -- 77
2018-10-16 01:00:00 14.1 8 Este 13 Este 0 -- -- 76
2018-10-16 00:00:00 14.3 6 Nordeste 15 Nordeste 0 -- -- 71
2018-10-15 23:00:00 14.3 5 Nordeste 15 Nordeste 0 -- -- 59
2018-10-15 22:00:00 13.1 6 Este 14 Nordeste 0 -- -- 68
2018-10-15 21:00:00 14.4 6 Nordeste 9 Nordeste 0 -- -- 60
2018-10-15 20:00:00 14.7 8 Nordeste 12 Este 0 -- -- 63
2018-10-15 19:00:00 16.7 2 Sudoeste 14 Sudoeste 0 -- -- 59
2018-10-15 18:00:00 18 12 Oeste 19 Oeste 0 -- -- 53
2018-10-15 17:00:00 18.1 13 Oeste 28 Oeste 0 -- -- 53
2018-10-15 16:00:00 18.2 15 Oeste 26 Sudoeste 0 -- -- 52
2018-10-15 15:00:00 17.4 16 Oeste 29 Oeste 0 -- -- 55
2018-10-15 14:00:00 16.5 21 Oeste 34 Oeste 0 -- -- 59
2018-10-15 13:00:00 15 26 Oeste 37 Oeste 0 -- -- 69
2018-10-15 12:00:00 13.9 24 Oeste 41 Oeste 0 -- -- 73
2018-10-15 11:00:00 12.4 23 Oeste 39 Oeste 0 -- -- 82
2018-10-15 10:00:00 10.8 26 Oeste 40 Oeste 0 -- -- 87
2018-10-15 09:00:00 10.1 18 Oeste 40 Oeste 0 -- -- 89
2018-10-15 08:00:00 9.6 23 Oeste 32 Oeste 0 -- -- 92
2018-10-15 07:00:00 9.5 22 Oeste 38 Oeste 0 -- -- 93
2018-10-15 06:00:00 9.9 17 Oeste 43 Oeste 0 -- -- 92
2018-10-15 05:00:00 10 27 Oeste 45 Noroeste 0 -- -- 92
2018-10-15 04:00:00 9.9 19 Noroeste 50 Oeste 0 -- -- 93
2018-10-15 03:00:00 10.5 19 Oeste 36 Oeste 0.2 -- -- 92
2018-10-15 02:00:00 10.7 22 Noroeste 38 Noroeste 0 -- -- 93
2018-10-15 01:00:00 10.9 19 Noroeste 32 Oeste 0 -- -- 96
2018-10-15 00:00:00 11.3 13 Noroeste 25 Noroeste 0 -- -- 96
2018-10-14 23:00:00 11.8 15 Noroeste 23 Noroeste 0 -- -- 96
2018-10-14 22:00:00 12.1 10 Oeste 16 Noroeste 0 -- -- 96
2018-10-14 21:00:00 12.5 13 Oeste 19 Oeste 0.2 -- -- 95
2018-10-14 20:00:00 13 9 Noroeste 22 Noroeste 0.6 -- -- 94
2018-10-14 19:00:00 12.9 6 Noroeste 28 Oeste 4.8 -- -- 94
2018-10-14 18:00:00 13.5 22 Oeste 35 Oeste 9 -- -- 89
2018-10-14 17:00:00 15.2 6 Noroeste 25 Este 2 -- -- 86
2018-10-14 16:00:00 18.1 13 Sudeste 28 Sudeste 0 -- -- 81
2018-10-14 15:00:00 19.5 15 Sudeste 39 Este 0 -- -- 71
2018-10-14 14:00:00 18.6 15 Sudeste 35 Oeste 1.2 -- -- 86
2018-10-14 13:00:00 17.6 25 Sur 44 Oeste 0.2 -- -- 74
2018-10-14 12:00:00 19.1 26 Este 53 Este 0 -- -- 80
2018-10-14 11:00:00 17.9 37 Este 57 Sudeste 0 -- -- 84
2018-10-14 10:00:00 17.5 42 Este 67 Este 0 -- -- 84
2018-10-14 09:00:00 16.5 46 Este 66 Este 0 -- -- 89
2018-10-14 08:00:00 16.3 42 Este 60 Este 0 -- -- 90
2018-10-14 07:00:00 16.6 45 Este 59 Este 0 -- -- 90
2018-10-14 06:00:00 16.7 35 Este 60 Este 0 -- -- 90
2018-10-14 05:00:00 16.8 41 Este 69 Este 0 -- -- 89
2018-10-14 04:00:00 16.7 44 Este 61 Sudeste 0 -- -- 88
2018-10-14 03:00:00 16.8 40 Este 60 Este 0 -- -- 88
2018-10-14 02:00:00 17 39 Este 57 Este 0 -- -- 87
2018-10-14 01:00:00 17.2 39 Este 56 Este 0 -- -- 87
2018-10-14 00:00:00 17.6 41 Este 55 Este 0 -- -- 85
2018-10-13 23:00:00 18.6 35 Este 44 Este 0 -- -- 81
2018-10-13 22:00:00 19.8 26 Este 39 Este 0 -- -- 75
2018-10-13 21:00:00 20.8 31 Este 41 Este 0 -- -- 72
2018-10-13 20:00:00 21.2 27 Este 39 Este 0 -- -- 71
2018-10-13 19:00:00 22.4 28 Este 39 Este 0 -- -- 66
2018-10-13 18:00:00 23.7 29 Este 39 Este 0 -- -- 60
2018-10-13 17:00:00 24.4 24 Este 39 Este 0 -- -- 56
2018-10-13 16:00:00 24.3 27 Este 45 Este 0 -- -- 57
2018-10-13 15:00:00 24.9 23 Este 39 Este 0 -- -- 57
2018-10-13 14:00:00 24 22 Este 35 Este 0 -- -- 60
2018-10-13 13:00:00 22.7 23 Este 40 Este 0 -- -- 68
2018-10-13 12:00:00 20.3 27 Este 40 Este 0 -- -- 79
2018-10-13 11:00:00 18.2 22 Este 36 Este 0 -- -- 87
2018-10-13 10:00:00 17.5 21 Este 28 Este 0 -- -- 90
2018-10-13 09:00:00 17.1 22 Este 30 Este 0 -- -- 92
2018-10-13 08:00:00 17 18 Este 24 Nordeste 0 -- -- 93
2018-10-13 07:00:00 16.8 15 Este 26 Este 0 -- -- 94
2018-10-13 06:00:00 16.5 23 Este 27 Este 0 -- -- 92
2018-10-13 05:00:00 16.4 18 Este 29 Este 0 -- -- 88
2018-10-13 04:00:00 16.9 18 Este 25 Este 0 -- -- 81
2018-10-13 03:00:00 17.6 17 Este 22 Este 0 -- -- 81
2018-10-13 02:00:00 18.1 15 Este 19 Este 0 -- -- 75
2018-10-13 01:00:00 18.7 14 Este 19 Este 0 -- -- 71
2018-10-13 00:00:00 19.2 13 Este 17 Este 0 -- -- 67
2018-10-12 23:00:00 19.7 13 Este 19 Este 0 -- -- 66
2018-10-12 22:00:00 19.9 12 Este 18 Nordeste 0 -- -- 66
2018-10-12 21:00:00 20.1 13 Este 18 Este 0 -- -- 63
2018-10-12 20:00:00 21.4 7 Este 10 Este 0 -- -- 56
2018-10-12 19:00:00 24 5 Sur 20 Sudoeste 0 -- -- 48
2018-10-12 18:00:00 25.1 14 Sudoeste 28 Sudoeste 0 -- -- 45
2018-10-12 17:00:00 25.6 12 Sur 27 Sudoeste 0 -- -- 44
2018-10-12 16:00:00 25.3 18 Sudoeste 31 Sudoeste 0 -- -- 47
2018-10-12 15:00:00 25.8 15 Sudoeste 31 Sudoeste 0 -- -- 49
2018-10-12 14:00:00 25 14 Sur 30 Sur 0 -- -- 50
2018-10-12 13:00:00 24.2 13 Sudeste 31 Sudoeste 0 -- -- 54
2018-10-12 12:00:00 23.1 16 Sudeste 29 Este 0 -- -- 56
2018-10-12 11:00:00 21.7 11 Sudeste 27 Sudeste 0 -- -- 65
2018-10-12 10:00:00 19.3 14 Este 25 Este 0 -- -- 73
2018-10-12 09:00:00 16.2 15 Este 21 Este 0 -- -- 87
2018-10-12 08:00:00 15.9 13 Este 19 Este 0 -- -- 88
2018-10-12 07:00:00 16.1 13 Este 21 Este 0 -- -- 88
2018-10-12 06:00:00 16.1 14 Este 19 Nordeste 0 -- -- 88
2018-10-12 05:00:00 16.9 10 Este 19 Este 0 -- -- 83
2018-10-12 04:00:00 16.9 12 Nordeste 17 Este 0 -- -- 85
2018-10-12 03:00:00 17.2 10 Este 19 Este 0 -- -- 83
2018-10-12 02:00:00 18.3 11 Este 24 Este 0 -- -- 79
2018-10-12 01:00:00 19.1 12 Este 21 Este 0 -- -- 76
2018-10-12 00:00:00 19.2 14 Este 24 Este 0 -- -- 73
2018-10-11 23:00:00 19.3 13 Sudeste 24 Sudeste 0 -- -- 70
2018-10-11 22:00:00 19.6 12 Este 21 Este 0 -- -- 69
2018-10-11 21:00:00 20.1 12 Este 25 Sudeste 0 -- -- 68
2018-10-11 20:00:00 20.5 15 Este 22 Sudeste 0 -- -- 66
2018-10-11 19:00:00 21.5 16 Este 27 Este 0 -- -- 62
2018-10-11 18:00:00 22 19 Este 28 Este 0 -- -- 61
2018-10-11 17:00:00 23.2 17 Sudeste 32 Sudeste 0 -- -- 58
2018-10-11 16:00:00 21 13 Este 30 Este 0 -- -- 65
2018-10-11 15:00:00 20.1 16 Este 32 Este 0 -- -- 70
2018-10-11 14:00:00 21.9 22 Este 39 Este 0 -- -- 59
2018-10-11 13:00:00 22 25 Este 36 Este 0 -- -- 61
2018-10-11 12:00:00 19.7 27 Este 39 Este 0 -- -- 69
2018-10-11 11:00:00 18.4 26 Este 37 Este 0 -- -- 73
2018-10-11 10:00:00 15.1 22 Este 37 Este 0 -- -- 90
2018-10-11 09:00:00 14.7 28 Este 35 Este 0 -- -- 89
2018-10-11 08:00:00 13.8 21 Este 29 Este 0 -- -- 92
2018-10-11 07:00:00 14 22 Este 27 Este 0 -- -- 91
2018-10-11 06:00:00 14.2 14 Este 28 Este 0 -- -- 90
2018-10-11 05:00:00 14 19 Este 30 Este 0 -- -- 89
2018-10-11 04:00:00 14.5 24 Este 33 Este 0 -- -- 87
2018-10-11 03:00:00 14.5 24 Este 33 Este 0 -- -- 89
2018-10-11 02:00:00 14.2 25 Este 31 Este 0 -- -- 90
2018-10-11 01:00:00 14.3 19 Este 28 Este 0 -- -- 85
2018-10-11 00:00:00 14.8 21 Este 31 Este 0 -- -- 82
2018-10-10 23:00:00 15.3 24 Este 33 Este 0 -- -- 78
2018-10-10 22:00:00 15.5 18 Este 25 Este 0 -- -- 83
2018-10-10 21:00:00 16.2 12 Este 23 Sudeste 0 -- -- 80
2018-10-10 20:00:00 17.6 17 Este 23 Este 0 -- -- 72
2018-10-10 19:00:00 19.8 10 Sudeste 19 Sudeste 0 -- -- 59
2018-10-10 18:00:00 21 10 Sudeste 21 Este 0 -- -- 54
2018-10-10 17:00:00 20.7 13 Sudeste 29 Este 0 -- -- 59
2018-10-10 16:00:00 18.4 18 Este 33 Este 0 -- -- 70
2018-10-10 15:00:00 17.9 21 Este 35 Sudeste 0 -- -- 73
2018-10-10 14:00:00 16.8 21 Este 34 Este 0 -- -- 76
2018-10-10 13:00:00 16.8 27 Este 41 Este 0 -- -- 77
2018-10-10 12:00:00 15.8 24 Este 36 Este 0 -- -- 85
2018-10-10 11:00:00 14.6 23 Este 37 Este 0 -- -- 88
2018-10-10 10:00:00 14.6 24 Este 38 Sudeste 0 -- -- 91
2018-10-10 09:00:00 13.4 22 Este 34 Sudeste 0 -- -- 94
2018-10-10 08:00:00 13.1 22 Este 31 Este 0 -- -- 95
2018-10-10 07:00:00 13.2 21 Este 32 Este 0 -- -- 94
2018-10-10 06:00:00 13.1 18 Este 30 Este 0 -- -- 95
2018-10-10 05:00:00 13 25 Este 35 Este 0 -- -- 94
2018-10-10 04:00:00 12.9 25 Este 32 Este 0 -- -- 93
2018-10-10 03:00:00 12.8 21 Este 31 Este 0 -- -- 91
2018-10-10 02:00:00 13 23 Este 32 Este 1.4 -- -- 92
2018-10-10 01:00:00 13 19 Este 36 Este 0.6 -- -- 87
2018-10-10 00:00:00 14.7 15 Este 29 Este 0 -- -- 72
2018-10-09 23:00:00 14.7 19 Este 26 Este 0 -- -- 74
2018-10-09 22:00:00 15.3 13 Este 23 Este 0 -- -- 72
2018-10-09 21:00:00 15.6 17 Este 32 Este 0 -- -- 67
2018-10-09 20:00:00 16.1 20 Este 37 Este 0 -- -- 66
2018-10-09 19:00:00 16.7 26 Este 39 Este 0 -- -- 61
2018-10-09 18:00:00 18.1 24 Este 40 Este 0 -- -- 56
2018-10-09 17:00:00 18.6 23 Este 39 Este 0 -- -- 55
2018-10-09 16:00:00 18 23 Este 32 Este 0 -- -- 59
2018-10-09 15:00:00 18.1 18 Este 31 Este 0 -- -- 56
2018-10-09 14:00:00 16.5 10 Sudeste 17 Este 0 -- -- 63
2018-10-09 13:00:00 14.5 4 Sudeste 17 Este 0.2 -- -- 74
2018-10-09 12:00:00 13.4 10 Este 17 Este 0.2 -- -- 77
2018-10-09 11:00:00 11 4 Este 6 Noroeste 0 -- -- 85
2018-10-09 10:00:00 9.4 7 Oeste 12 Oeste 0 -- -- 89
2018-10-09 09:00:00 8 6 Nordeste 12 Nordeste 0 -- -- 91
2018-10-09 08:00:00 7.4 6 Nordeste 10 Este 0 -- -- 92
2018-10-09 07:00:00 7.4 6 Nordeste 13 Este 0 -- -- 92
2018-10-09 06:00:00 7.6 6 Nordeste 9 Nordeste 0 -- -- 88
2018-10-09 05:00:00 8.4 3 Este 6 Nordeste 0 -- -- 85
2018-10-09 04:00:00 9 5 Este 8 Nordeste 0 -- -- 81
2018-10-09 03:00:00 9.8 5 Este 8 Nordeste 0 -- -- 78
2018-10-09 02:00:00 10.2 5 Nordeste 8 Este 0 -- -- 75
2018-10-09 01:00:00 10.1 4 Este 7 Noroeste 0 -- -- 73
2018-10-09 00:00:00 11.2 3 Sudeste 12 Nordeste 0 -- -- 70
2018-10-08 23:00:00 11.3 8 Este 13 Nordeste 0 -- -- 68
2018-10-08 22:00:00 12.2 11 Nordeste 14 Nordeste 0 -- -- 65
2018-10-08 21:00:00 13.3 9 Nordeste 11 Nordeste 0 -- -- 59
2018-10-08 20:00:00 15.6 5 Este 10 Sudoeste 0 -- -- 53
2018-10-08 19:00:00 18.4 7 Oeste 19 Oeste 0 -- -- 47
2018-10-08 18:00:00 18.7 13 Oeste 23 Oeste 0 -- -- 47
2018-10-08 17:00:00 19.6 10 Oeste 21 Oeste 0 -- -- 46
2018-10-08 16:00:00 18.5 9 Sudoeste 24 Sudoeste 0 -- -- 49
2018-10-08 15:00:00 18.3 13 Sudoeste 21 Sudoeste 0 -- -- 51
2018-10-08 14:00:00 17.3 11 Sudoeste 20 Oeste 0 -- -- 55
2018-10-08 13:00:00 16.1 11 Sudoeste 20 Oeste 0 -- -- 61
2018-10-08 12:00:00 14.8 10 Oeste 21 Oeste 0 -- -- 66
2018-10-08 11:00:00 12.2 15 Oeste 22 Oeste 0 -- -- 79
2018-10-08 10:00:00 9.8 11 Oeste 23 Oeste 0 -- -- 90
2018-10-08 09:00:00 9.3 10 Oeste 25 Oeste 0 -- -- 92
2018-10-08 08:00:00 9 13 Noroeste 28 Oeste 0 -- -- 93
2018-10-08 07:00:00 9.2 16 Noroeste 27 Noroeste 0 -- -- 92
2018-10-08 06:00:00 9.3 15 Noroeste 25 Noroeste 0 -- -- 91
2018-10-08 05:00:00 9.3 14 Noroeste 31 Noroeste 0 -- -- 91
2018-10-08 04:00:00 9.5 12 Noroeste 27 Noroeste 0 -- -- 89
2018-10-08 03:00:00 9.8 18 Noroeste 35 Noroeste 0 -- -- 87
2018-10-08 02:00:00 10.1 18 Noroeste 38 Noroeste 0 -- -- 84
2018-10-08 01:00:00 9.9 17 Noroeste 36 Noroeste 0 -- -- 84
2018-10-08 00:00:00 10.2 19 Oeste 48 Oeste 0 -- -- 79
2018-10-07 23:00:00 10.8 24 Noroeste 43 Noroeste 0 -- -- 73
2018-10-07 22:00:00 10.9 23 Noroeste 43 Oeste 0 -- -- 73
2018-10-07 21:00:00 11.6 19 Oeste 38 Oeste 0 -- -- 70
2018-10-07 20:00:00 11.7 25 Oeste 42 Noroeste 0 -- -- 70
2018-10-07 19:00:00 12.8 26 Oeste 41 Oeste 0 -- -- 65
2018-10-07 18:00:00 13 18 Oeste 38 Noroeste 0 -- -- 64
2018-10-07 17:00:00 13.2 24 Noroeste 47 Noroeste 0 -- -- 62
2018-10-07 16:00:00 15.1 27 Oeste 53 Oeste 0 -- -- 56
2018-10-07 15:00:00 14.4 25 Noroeste 55 Noroeste 0 -- -- 53
2018-10-07 14:00:00 15 30 Oeste 51 Noroeste 0 -- -- 52
2018-10-07 13:00:00 13.6 26 Noroeste 49 Oeste 0 -- -- 57
2018-10-07 12:00:00 12.8 23 Oeste 53 Oeste 0 -- -- 63
2018-10-07 11:00:00 12 29 Oeste 49 Oeste 0 -- -- 66
2018-10-07 10:00:00 11 24 Noroeste 39 Oeste 0 -- -- 69
2018-10-07 09:00:00 9.8 17 Noroeste 42 Oeste 0 -- -- 76
2018-10-07 08:00:00 8.9 19 Oeste 40 Oeste 0 -- -- 73
2018-10-07 07:00:00 9.8 20 Noroeste 44 Noroeste 0 -- -- 69
2018-10-07 06:00:00 10.1 22 Noroeste 47 Oeste 0 -- -- 68
2018-10-07 05:00:00 10.5 24 Noroeste 41 Noroeste 0 -- -- 66
2018-10-07 04:00:00 11.5 18 Oeste 35 Noroeste 0 -- -- 68
2018-10-07 03:00:00 12.1 21 Noroeste 49 Oeste 0 -- -- 66
2018-10-07 02:00:00 12.4 27 Noroeste 43 Noroeste 0 -- -- 64
2018-10-07 01:00:00 12.7 24 Noroeste 40 Noroeste 0 -- -- 65
2018-10-07 00:00:00 13.4 21 Noroeste 39 Noroeste 0 -- -- 61
2018-10-06 23:00:00 13.8 22 Noroeste 45 Noroeste 0 -- -- 62
2018-10-06 22:00:00 15.8 27 Noroeste 43 Noroeste 0 -- -- 63
2018-10-06 21:00:00 21.7 15 Sudoeste 28 Sudoeste 0 -- -- 49
2018-10-06 20:00:00 22.4 8 Este 16 Este 0 -- -- 45
2018-10-06 19:00:00 23.6 11 Este 22 Este 0 -- -- 40
2018-10-06 18:00:00 24.9 19 Este 29 Este 0 -- -- 39
2018-10-06 17:00:00 25.9 14 Este 29 Este 0 -- -- 41
2018-10-06 16:00:00 26.3 13 Este 22 Sudeste 0 -- -- 40
2018-10-06 15:00:00 25.2 12 Este 23 Este 0 -- -- 46
2018-10-06 14:00:00 23.9 12 Sudeste 22 Este 0 -- -- 50
2018-10-06 13:00:00 22.1 12 Este 22 Este 0 -- -- 59
2018-10-06 12:00:00 19.8 13 Este 27 Sudeste 0 -- -- 70
2018-10-06 11:00:00 18.4 16 Este 26 Este 0 -- -- 75
2018-10-06 10:00:00 17 17 Este 27 Este 0 -- -- 81
2018-10-06 09:00:00 14.8 17 Este 22 Este 0 -- -- 88
2018-10-06 08:00:00 14.2 14 Este 24 Este 0 -- -- 90
2018-10-06 07:00:00 14.7 19 Este 26 Este 0 -- -- 89
2018-10-06 06:00:00 14.9 19 Este 32 Este 0 -- -- 88
2018-10-06 05:00:00 14.9 24 Este 30 Este 0 -- -- 89
2018-10-06 04:00:00 14.7 21 Este 34 Este 0 -- -- 88
2018-10-06 03:00:00 15.3 22 Este 31 Este 0 -- -- 85
2018-10-06 02:00:00 16.1 26 Este 35 Este 0 -- -- 79
2018-10-06 01:00:00 16 18 Este 23 Este 0 -- -- 70
2018-10-06 00:00:00 17 10 Nordeste 15 Este 0 -- -- 67
2018-10-05 23:00:00 18 8 Este 19 Este 0 -- -- 63
2018-10-05 22:00:00 18.5 15 Este 21 Este 0 -- -- 60
2018-10-05 21:00:00 19.5 15 Este 22 Este 0 -- -- 56
2018-10-05 20:00:00 21.1 15 Este 28 Este 0 -- -- 48
2018-10-05 19:00:00 23.1 20 Este 29 Este 0 -- -- 41
2018-10-05 18:00:00 24.9 14 Este 27 Este 0 -- -- 40
2018-10-05 17:00:00 25.3 17 Este 33 Este 0 -- -- 40
2018-10-05 16:00:00 25.4 13 Sudeste 37 Este 0 -- -- 42
2018-10-05 15:00:00 24.6 19 Este 32 Este 0 -- -- 43
2018-10-05 14:00:00 23.4 20 Sudeste 33 Este 0 -- -- 45
2018-10-05 13:00:00 21.8 21 Sudeste 34 Sudeste 0 -- -- 50
2018-10-05 12:00:00 20.6 18 Sudeste 35 Este 0 -- -- 55
2018-10-05 11:00:00 18.8 23 Sudeste 32 Sudeste 0 -- -- 61
2018-10-05 10:00:00 16.8 21 Este 30 Este 0 -- -- 73
2018-10-05 09:00:00 14.5 22 Este 31 Este 0 -- -- 83
2018-10-05 08:00:00 13.6 19 Este 30 Este 0 -- -- 84
2018-10-05 07:00:00 14.3 26 Este 33 Este 0 -- -- 81
2018-10-05 06:00:00 14.6 22 Este 30 Este 0 -- -- 71
2018-10-05 05:00:00 14.9 14 Este 31 Este 0 -- -- 64
2018-10-05 04:00:00 15.2 27 Este 37 Este 0 -- -- 65
2018-10-05 03:00:00 16.2 27 Este 38 Este 0 -- -- 59
2018-10-05 02:00:00 16.7 26 Este 31 Este 0 -- -- 58
2018-10-05 01:00:00 17.4 19 Este 30 Este 0 -- -- 51
2018-10-05 00:00:00 17.7 22 Este 31 Este 0 -- -- 56
2018-10-04 23:00:00 17.7 17 Este 23 Este 0 -- -- 55
2018-10-04 22:00:00 18.6 15 Este 22 Este 0 -- -- 53
2018-10-04 21:00:00 19.4 12 Este 23 Este 0 -- -- 47
2018-10-04 20:00:00 21.4 14 Este 27 Este 0 -- -- 40
2018-10-04 19:00:00 23.8 19 Este 28 Este 0 -- -- 37
2018-10-04 18:00:00 25.2 14 Este 24 Este 0 -- -- 35
2018-10-04 17:00:00 25.9 15 Este 23 Este 0 -- -- 34
2018-10-04 16:00:00 25.6 14 Este 23 Este 0 -- -- 35
2018-10-04 15:00:00 24.8 11 Este 22 Sudeste 0 -- -- 39
2018-10-04 14:00:00 23.6 14 Este 22 Este 0 -- -- 41
2018-10-04 13:00:00 21.5 9 Este 18 Oeste 0 -- -- 46
2018-10-04 12:00:00 18.7 9 Oeste 16 Oeste 0 -- -- 55
2018-10-04 11:00:00 16.4 5 Sudoeste 9 Oeste 0 -- -- 62
2018-10-04 10:00:00 13.4 4 Este 9 Este 0 -- -- 75
2018-10-04 09:00:00 9.8 8 Este 10 Nordeste 0 -- -- 88
2018-10-04 08:00:00 9.9 5 Nordeste 8 Este 0 -- -- 86
2018-10-04 07:00:00 10.5 4 Este 6 Este 0 -- -- 84
2018-10-04 06:00:00 10.9 4 Este 6 Nordeste 0 -- -- 81
2018-10-04 05:00:00 11.7 0 Calma 5 Oeste 0 -- -- 77
2018-10-04 04:00:00 12.7 10 Oeste 20 Oeste 0 -- -- 71
2018-10-04 03:00:00 12.6 3 Nordeste 12 Noroeste 0 -- -- 71
2018-10-04 02:00:00 13.3 0 Calma 5 Oeste 0 -- -- 65
2018-10-04 01:00:00 13.9 0 Calma 6 Oeste 0 -- -- 63
2018-10-04 00:00:00 14.3 0 Calma 9 Oeste 0 -- -- 62
2018-10-03 23:00:00 15.5 8 Oeste 15 Oeste 0 -- -- 59
2018-10-03 22:00:00 17.3 13 Oeste 19 Oeste 0 -- -- 53
2018-10-03 21:00:00 19.1 10 Oeste 20 Oeste 0 -- -- 45
2018-10-03 20:00:00 22.7 13 Oeste 17 Oeste 0 -- -- 40
2018-10-03 19:00:00 24.9 14 Oeste 23 Oeste 0 -- -- 35
2018-10-03 18:00:00 25.4 17 Oeste 26 Sudoeste 0 -- -- 34
2018-10-03 17:00:00 25.1 17 Oeste 27 Oeste 0 -- -- 35
2018-10-03 16:00:00 24.1 19 Oeste 27 Oeste 0 -- -- 35
2018-10-03 15:00:00 23.4 18 Oeste 29 Oeste 0 -- -- 35
2018-10-03 14:00:00 21.5 20 Oeste 27 Oeste 0 -- -- 38
2018-10-03 13:00:00 19.3 18 Oeste 28 Oeste 0 -- -- 41
2018-10-03 12:00:00 17.3 18 Oeste 26 Oeste 0 -- -- 45
2018-10-03 11:00:00 15.3 14 Oeste 23 Oeste 0 -- -- 49
2018-10-03 10:00:00 13.3 14 Oeste 26 Oeste 0 -- -- 54
2018-10-03 09:00:00 10.2 8 Oeste 17 Oeste 0 -- -- 64
2018-10-03 08:00:00 9.4 5 Oeste 14 Sudoeste 0 -- -- 65
2018-10-03 07:00:00 9.6 5 Oeste 21 Oeste 0 -- -- 65
2018-10-03 06:00:00 10.1 10 Oeste 22 Oeste 0 -- -- 63
2018-10-03 05:00:00 10.4 10 Oeste 21 Oeste 0 -- -- 62
2018-10-03 04:00:00 10.5 11 Oeste 22 Oeste 0 -- -- 63
2018-10-03 03:00:00 10.4 11 Oeste 18 Oeste 0 -- -- 62
2018-10-03 02:00:00 10.6 11 Oeste 22 Oeste 0 -- -- 61
2018-10-03 01:00:00 10.9 10 Oeste 30 Oeste 0 -- -- 60
2018-10-03 00:00:00 11.3 15 Oeste 22 Oeste 0 -- -- 58
2018-10-02 23:00:00 11.6 8 Oeste 26 Oeste 0 -- -- 53
2018-10-02 22:00:00 12.8 18 Oeste 28 Oeste 0 -- -- 51
2018-10-02 21:00:00 14 14 Oeste 34 Noroeste 0 -- -- 45
2018-10-02 20:00:00 16.6 20 Oeste 37 Oeste 0 -- -- 36
2018-10-02 19:00:00 19.5 29 Oeste 43 Oeste 0 -- -- 29
2018-10-02 18:00:00 21.1 31 Oeste 45 Oeste 0 -- -- 26
2018-10-02 17:00:00 21.9 28 Oeste 44 Oeste 0 -- -- 23
2018-10-02 16:00:00 21 32 Oeste 46 Oeste 0 -- -- 25
2018-10-02 15:00:00 19.7 24 Oeste 45 Oeste 0 -- -- 25
2018-10-02 14:00:00 18.8 23 Oeste 40 Oeste 0 -- -- 27
2018-10-02 13:00:00 17.3 27 Oeste 37 Oeste 0 -- -- 32
2018-10-02 12:00:00 14.5 26 Oeste 39 Oeste 0 -- -- 38
2018-10-02 11:00:00 12.1 27 Oeste 41 Oeste 0 -- -- 48
2018-10-02 10:00:00 9.9 21 Oeste 35 Noroeste 0 -- -- 57
2018-10-02 09:00:00 8.9 20 Oeste 33 Oeste 0 -- -- 62
2018-10-02 08:00:00 8.2 19 Oeste 38 Oeste 0 -- -- 66
2018-10-02 07:00:00 8.4 25 Oeste 43 Oeste 0 -- -- 66
2018-10-02 06:00:00 8.7 24 Oeste 42 Oeste 0 -- -- 66
2018-10-02 05:00:00 8.7 26 Oeste 43 Oeste 0 -- -- 67
2018-10-02 04:00:00 8.7 25 Oeste 42 Oeste 0 -- -- 68
2018-10-02 03:00:00 8.7 24 Oeste 40 Oeste 0 -- -- 67
2018-10-02 02:00:00 9.4 31 Oeste 50 Oeste 0 -- -- 64
2018-10-02 01:00:00 9.4 18 Oeste 40 Oeste 0 -- -- 63
2018-10-02 00:00:00 10.2 20 Noroeste 46 Oeste 0 -- -- 62
2018-10-01 23:00:00 10.5 22 Oeste 49 Noroeste 0 -- -- 63
2018-10-01 22:00:00 11.1 30 Noroeste 52 Noroeste 0 -- -- 61
2018-10-01 21:00:00 11.8 23 Oeste 55 Noroeste 0 -- -- 57
2018-10-01 20:00:00 12.7 38 Noroeste 59 Noroeste 0 -- -- 51
2018-10-01 19:00:00 14.1 39 Noroeste 70 Noroeste 0 -- -- 49
2018-10-01 18:00:00 15.2 41 Noroeste 76 Oeste 0 -- -- 46
2018-10-01 17:00:00 16.2 34 Noroeste 67 Noroeste 0 -- -- 43
2018-10-01 16:00:00 17.4 33 Noroeste 63 Noroeste 0 -- -- 41
2018-10-01 15:00:00 17.3 27 Noroeste 58 Noroeste 0 -- -- 40
2018-10-01 14:00:00 16.8 37 Noroeste 64 Noroeste 0 -- -- 44
2018-10-01 13:00:00 17.5 30 Noroeste 63 Noroeste 0 -- -- 47
2018-10-01 12:00:00 16.4 32 Oeste 61 Oeste 0 -- -- 54
2018-10-01 11:00:00 15 23 Oeste 51 Noroeste 0 -- -- 56
2018-10-01 10:00:00 14.1 26 Oeste 42 Noroeste 0 -- -- 56
2018-10-01 09:00:00 13 26 Noroeste 58 Noroeste 0 -- -- 59
2018-10-01 08:00:00 12.6 26 Noroeste 51 Oeste 0 -- -- 66
2018-10-01 07:00:00 12.2 31 Oeste 50 Oeste 0 -- -- 73
2018-10-01 06:00:00 12.3 23 Oeste 47 Noroeste 0 -- -- 68
2018-10-01 05:00:00 12.8 30 Noroeste 60 Oeste 0 -- -- 68
2018-10-01 04:00:00 12.8 26 Oeste 46 Noroeste 0 -- -- 72
2018-10-01 03:00:00 12.7 20 Oeste 33 Oeste 0 -- -- 73
2018-10-01 02:00:00 12.6 22 Oeste 44 Oeste 0 -- -- 75
2018-10-01 01:00:00 13.2 28 Oeste 45 Oeste 0 -- -- 70
2018-10-01 00:00:00 13.6 27 Noroeste 53 Oeste 0 -- -- 67
2018-09-30 23:00:00 14.5 29 Noroeste 46 Noroeste 0 -- -- 59
2018-09-30 22:00:00 15.6 22 Noroeste 33 Oeste 0 -- -- 58
2018-09-30 21:00:00 17.5 16 Oeste 28 Noroeste 0 -- -- 49
2018-09-30 20:00:00 20.5 14 Noroeste 33 Oeste 0 -- -- 27
2018-09-30 19:00:00 23.7 14 Noroeste 31 Noroeste 0 -- -- 19
2018-09-30 18:00:00 24.6 19 Oeste 36 Oeste 0 -- -- 19
2018-09-30 17:00:00 24.7 22 Oeste 45 Oeste 0 -- -- 14
2018-09-30 16:00:00 24.5 20 Oeste 37 Oeste 0 -- -- 17
2018-09-30 15:00:00 23.7 18 Oeste 31 Oeste 0 -- -- 20
2018-09-30 14:00:00 22.2 18 Oeste 27 Oeste 0 -- -- 26
2018-09-30 13:00:00 20.6 18 Oeste 26 Oeste 0 -- -- 38
2018-09-30 12:00:00 18.5 18 Oeste 26 Sudoeste 0 -- -- 49
2018-09-30 11:00:00 16 17 Sudoeste 22 Sudoeste 0 -- -- 62
2018-09-30 10:00:00 13.4 6 Oeste 8 Sudoeste 0 -- -- 74
2018-09-30 09:00:00 11.1 0 Calma 5 Nordeste 0 -- -- 79
2018-09-30 08:00:00 10.6 0 Calma 5 Oeste 0 -- -- 79
2018-09-30 07:00:00 11.3 0 Calma 8 Oeste 0 -- -- 75
2018-09-30 06:00:00 12.8 6 Oeste 8 Noroeste 0 -- -- 70
2018-09-30 05:00:00 13.7 0 Calma 4 Este 0 -- -- 69
2018-09-30 04:00:00 13.9 0 Calma 5 Sudeste 0 -- -- 72
2018-09-30 03:00:00 13.9 2 Oeste 10 Oeste 0 -- -- 75
2018-09-30 02:00:00 14.2 7 Oeste 13 Oeste 0 -- -- 75
2018-09-30 01:00:00 15.6 9 Oeste 20 Oeste 0 -- -- 68
2018-09-30 00:00:00 17.5 13 Noroeste 23 Oeste 0 -- -- 61
2018-09-29 23:00:00 18.7 16 Noroeste 28 Noroeste 0 -- -- 57
2018-09-29 22:00:00 19.5 17 Noroeste 31 Noroeste 0 -- -- 54
2018-09-29 21:00:00 20.8 15 Noroeste 26 Noroeste 0 -- -- 49
2018-09-29 20:00:00 21.9 14 Noroeste 32 Oeste 0 -- -- 48
2018-09-29 19:00:00 24.5 19 Oeste 37 Oeste 0 -- -- 34
2018-09-29 18:00:00 25.3 26 Oeste 44 Oeste 0 -- -- 35
2018-09-29 17:00:00 26.6 24 Oeste 42 Oeste 0 -- -- 40
2018-09-29 16:00:00 26.6 21 Oeste 37 Oeste 0 -- -- 39
2018-09-29 15:00:00 25.8 24 Oeste 36 Oeste 0 -- -- 42
2018-09-29 14:00:00 24.5 24 Oeste 35 Oeste 0 -- -- 48
2018-09-29 13:00:00 22.6 19 Oeste 31 Oeste 0 -- -- 55
2018-09-29 12:00:00 20.6 17 Oeste 28 Oeste 0 -- -- 62
2018-09-29 11:00:00 18.9 14 Oeste 26 Oeste 0 -- -- 68
2018-09-29 10:00:00 16.7 11 Oeste 15 Oeste 0 -- -- 77
2018-09-29 09:00:00 14.1 0 Calma 7 Este 0 -- -- 84
2018-09-29 08:00:00 12.6 6 Este 7 Este 0 -- -- 86
2018-09-29 07:00:00 13.7 5 Nordeste 8 Este 0 -- -- 83
2018-09-29 06:00:00 13.7 5 Este 7 Este 0 -- -- 81
2018-09-29 05:00:00 15 4 Nordeste 8 Este 0 -- -- 77
2018-09-29 04:00:00 14.6 0 Calma 9 Este 0 -- -- 79
2018-09-29 03:00:00 15.1 0 Calma 5 Este 0 -- -- 77
2018-09-29 02:00:00 15.9 0 Calma 8 Este 0 -- -- 73
2018-09-29 01:00:00 16.3 5 Este 6 Este 0 -- -- 72
2018-09-29 00:00:00 17.5 0 Calma 4 Sudoeste 0 -- -- 68
2018-09-28 23:00:00 18.3 0 Calma 11 Oeste 0 -- -- 63
2018-09-28 22:00:00 20.3 4 Nordeste 10 Nordeste 0 -- -- 55
2018-09-28 21:00:00 21.2 8 Nordeste 9 Nordeste 0 -- -- 50
2018-09-28 20:00:00 24.5 7 Oeste 15 Oeste 0 -- -- 43
2018-09-28 19:00:00 26.6 15 Oeste 21 Oeste 0 -- -- 35
2018-09-28 18:00:00 27.4 13 Sudoeste 24 Sudoeste 0 -- -- 42
2018-09-28 17:00:00 27.3 9 Oeste 21 Oeste 0 -- -- 44
2018-09-28 16:00:00 26.4 10 Oeste 22 Oeste 0 -- -- 49
2018-09-28 15:00:00 25.3 14 Oeste 24 Oeste 0 -- -- 52
2018-09-28 14:00:00 25 14 Oeste 22 Oeste 0 -- -- 53
2018-09-28 13:00:00 23.3 10 Oeste 20 Sudoeste 0 -- -- 58
2018-09-28 12:00:00 21.9 13 Oeste 19 Oeste 0 -- -- 61
2018-09-28 11:00:00 19.7 12 Oeste 17 Oeste 0 -- -- 66
2018-09-28 10:00:00 17.7 2 Oeste 9 Nordeste 0 -- -- 73
2018-09-28 09:00:00 15.1 4 Nordeste 12 Nordeste 0 -- -- 82
2018-09-28 08:00:00 14.4 10 Nordeste 12 Nordeste 0 -- -- 85
2018-09-28 07:00:00 15.2 7 Nordeste 12 Nordeste 0 -- -- 81
2018-09-28 06:00:00 15.2 10 Nordeste 14 Nordeste 0 -- -- 79
2018-09-28 05:00:00 15.7 9 Nordeste 13 Nordeste 0 -- -- 78
2018-09-28 04:00:00 16 9 Nordeste 14 Nordeste 0 -- -- 77
2018-09-28 03:00:00 17.3 9 Nordeste 13 Nordeste 0 -- -- 74
2018-09-28 02:00:00 18 9 Nordeste 14 Nordeste 0 -- -- 73
2018-09-28 01:00:00 17.5 10 Nordeste 13 Nordeste 0 -- -- 74
2018-09-28 00:00:00 17.5 12 Nordeste 15 Nordeste 0 -- -- 74
2018-09-27 23:00:00 17.9 12 Nordeste 14 Nordeste 0 -- -- 72
2018-09-27 22:00:00 19.6 8 Nordeste 12 Nordeste 0 -- -- 65
2018-09-27 21:00:00 21 8 Nordeste 10 Nordeste 0 -- -- 60
2018-09-27 20:00:00 23.8 0 Calma 11 Oeste 0 -- -- 53
2018-09-27 19:00:00 25.7 10 Oeste 18 Oeste 0 -- -- 48
2018-09-27 18:00:00 26.4 12 Sudoeste 22 Sudoeste 0 -- -- 48
2018-09-27 17:00:00 26.5 15 Oeste 23 Oeste 0 -- -- 47
2018-09-27 16:00:00 26.9 9 Sudoeste 23 Sudoeste 0 -- -- 46
2018-09-27 15:00:00 26.2 7 Sudoeste 17 Oeste 0 -- -- 48
2018-09-27 14:00:00 25.1 5 Sur 20 Sudoeste 0 -- -- 50
2018-09-27 13:00:00 23.6 5 Sudeste 19 Este 0 -- -- 54
2018-09-27 12:00:00 22.2 10 Sudeste 26 Este 0 -- -- 58
2018-09-27 11:00:00 20.7 17 Este 26 Este 0 -- -- 66
2018-09-27 10:00:00 18.2 17 Este 24 Este 0 -- -- 76
2018-09-27 09:00:00 15.5 13 Este 22 Este 0 -- -- 85
2018-09-27 08:00:00 14.5 13 Este 21 Este 0 -- -- 87
2018-09-27 07:00:00 14.6 16 Este 23 Este 0 -- -- 87
2018-09-27 06:00:00 14.8 14 Este 24 Este 0 -- -- 87
2018-09-27 05:00:00 14.8 13 Este 24 Este 0 -- -- 87
2018-09-27 04:00:00 15.4 22 Este 33 Este 0 -- -- 85
2018-09-27 03:00:00 15.7 20 Este 32 Este 0 -- -- 85
2018-09-27 02:00:00 16.3 21 Este 31 Este 0 -- -- 81